Time;durP1;ratioP1;P1;durP2;ratioP2;P2;SDS_P1;SDS_P2;PMS_P1;PMS_P2;Temp;Humidity;BMP_temperature;BMP_pressure;BME280_temperature;BME280_humidity;BME280_pressure;Samples;Min_cycle;Max_cycle;Signal;HPM_P1;HPM_P2
2021/01/25 08:06:11;;;;;;;8.93;5.93;;;;;;;;;;4226593;27;20363;-61
2021/01/25 08:08:38;;;;;;;9.65;5.30;;;;;;;;;;4207850;28;20055;-61
2021/01/25 08:11:09;;;;;;;9.63;4.80;;;;;;;;;;4229812;28;20758;-61
2021/01/25 08:13:39;;;;;;;6.28;4.40;;;;;;;;;;4229666;28;20054;-60
2021/01/25 08:16:10;;;;;;;6.68;4.22;;;;;;;;;;4230545;27;20059;-59
2021/01/25 08:18:41;;;;;;;6.57;4.47;;;;;;;;;;4227834;28;20111;-59
2021/01/25 08:21:05;;;;;;;;;;;;;;;;;;4229072;28;20101;-59
2021/01/25 08:23:28;;;;;;;6.00;4.10;;;;;;;;;;4224003;28;19950;-58
2021/01/25 08:26:00;;;;;;;6.05;4.07;;;;;;;;;;4224113;28;20055;-60
2021/01/25 08:28:28;;;;;;;5.63;3.53;;;;;;;;;;4223074;28;20437;-59
2021/01/25 08:30:52;;;;;;;5.78;3.53;;;;;;;;;;4223786;28;20500;-60
2021/01/25 08:33:25;;;;;;;5.50;3.35;;;;;;;;;;4223180;28;20819;-57
2021/01/25 08:35:54;;;;;;;4.53;3.45;;;;;;;;;;4225270;28;20050;-58
2021/01/25 08:38:25;;;;;;;4.30;3.20;;;;;;;;;;4221024;28;20207;-61
2021/01/25 08:40:48;;;;;;;5.40;2.88;;;;;;;;;;4220680;28;20062;-59
2021/01/25 08:43:22;;;;;;;5.15;3.03;;;;;;;;;;4216374;28;20192;-59
2021/01/25 08:45:45;;;;;;;5.60;3.22;;;;;;;;;;4218976;28;20054;-60
2021/01/25 08:48:09;;;;;;;6.00;3.38;;;;;;;;;;4222592;28;20054;-61
2021/01/25 08:50:30;;;;;;;6.88;4.35;;;;;;;;;;4221083;28;20406;-59
2021/01/25 08:52:59;;;;;;;8.65;3.65;;;;;;;;;;4221939;28;20081;-58
2021/01/25 08:55:25;;;;;;;10.43;4.10;;;;;;;;;;4205469;28;20114;-59
2021/01/25 08:57:49;;;;;;;6.75;4.15;;;;;;;;;;4205994;28;20079;-58
2021/01/25 09:00:15;;;;;;;7.88;3.92;;;;;;;;;;4210354;28;20101;-59
2021/01/25 09:02:36;;;;;;;5.50;3.78;;;;;;;;;;4204747;28;20101;-59
2021/01/25 09:05:01;;;;;;;8.20;3.63;;;;;;;;;;4206120;28;20087;-59
2021/01/25 09:07:24;;;;;;;6.10;3.58;;;;;;;;;;4205007;28;20098;-59
2021/01/25 09:09:47;;;;;;;6.88;3.38;;;;;;;;;;4204496;28;20110;-59
2021/01/25 09:12:08;;;;;;;6.93;3.88;;;;;;;;;;4219257;28;20066;-59
2021/01/25 09:14:32;;;;;;;6.93;3.60;;;;;;;;;;4205070;28;20158;-59
2021/01/25 09:16:53;;;;;;;;;;;;;;;;;;4203422;28;20067;-60
2021/01/25 09:19:15;;;;;;;8.40;4.32;;;;;;;;;;4212417;28;19931;-57
2021/01/25 09:21:39;;;;;;;8.88;3.90;;;;;;;;;;4211989;28;20151;-58
2021/01/25 09:24:03;;;;;;;8.75;3.83;;;;;;;;;;4213116;28;20058;-60
2021/01/25 09:26:24;;;;;;;7.88;3.33;;;;;;;;;;4206598;28;20078;-60
2021/01/25 09:28:47;;;;;;;5.38;3.20;;;;;;;;;;4209409;28;20055;-61
2021/01/25 09:31:09;;;;;;;7.30;3.28;;;;;;;;;;4209145;28;20101;-60
2021/01/25 09:33:29;;;;;;;;;;;;;;;;;;4208931;28;20109;-59
2021/01/25 09:35:52;;;;;;;5.32;2.28;;;;;;;;;;4210876;28;20333;-59
2021/01/25 09:38:13;;;;;;;4.85;2.47;;;;;;;;;;4210717;28;20517;-59
2021/01/25 09:40:37;;;;;;;4.82;3.42;;;;;;;;;;4211994;28;20831;-60
2021/01/25 09:42:58;;;;;;;5.78;2.75;;;;;;;;;;4210783;28;20059;-59
2021/01/25 09:45:20;;;;;;;3.67;2.92;;;;;;;;;;4209165;28;20119;-58
2021/01/25 09:47:43;;;;;;;6.32;3.60;;;;;;;;;;4211797;28;20050;-58
2021/01/25 09:50:10;;;;;;;5.15;3.08;;;;;;;;;;4196310;28;20082;-57
2021/01/25 09:52:30;;;;;;;7.22;3.28;;;;;;;;;;4195205;28;20059;-56
2021/01/25 09:54:54;;;;;;;6.43;2.72;;;;;;;;;;4197792;28;20131;-57
2021/01/25 09:57:15;;;;;;;3.55;2.40;;;;;;;;;;4211742;28;20055;-58
2021/01/25 09:59:35;;;;;;;3.97;2.00;;;;;;;;;;4207184;28;20111;-56
2021/01/25 10:01:56;;;;;;;5.53;2.40;;;;;;;;;;4210298;28;20085;-57
2021/01/25 10:04:19;;;;;;;4.65;2.70;;;;;;;;;;4212439;28;20100;-58
2021/01/25 10:06:39;;;;;;;4.20;2.38;;;;;;;;;;4212731;28;20081;-57
2021/01/25 10:09:04;;;;;;;4.47;2.75;;;;;;;;;;4212495;28;20614;-57
2021/01/25 10:11:26;;;;;;;2.95;2.15;;;;;;;;;;4212659;28;20147;-57
2021/01/25 10:13:49;;;;;;;4.53;2.35;;;;;;;;;;4212404;28;20105;-57
2021/01/25 10:16:10;;;;;;;5.20;2.60;;;;;;;;;;4211762;28;20087;-57
2021/01/25 10:18:30;;;;;;;3.58;2.30;;;;;;;;;;4210980;28;20101;-57
2021/01/25 10:20:54;;;;;;;3.38;2.53;;;;;;;;;;4208104;28;20063;-57
2021/01/25 10:23:14;;;;;;;3.33;2.40;;;;;;;;;;4209485;28;20094;-59
2021/01/25 10:25:38;;;;;;;2.45;2.00;;;;;;;;;;4211537;28;20140;-58
2021/01/25 10:28:00;;;;;;;4.17;2.10;;;;;;;;;;4210313;28;20055;-58
2021/01/25 10:30:21;;;;;;;4.30;2.33;;;;;;;;;;4208078;28;20133;-59
2021/01/25 10:32:41;;;;;;;;;;;;;;;;;;4209798;28;20075;-60
2021/01/25 10:35:03;;;;;;;4.27;2.47;;;;;;;;;;4209853;28;20025;-59
2021/01/25 10:37:23;;;;;;;4.22;2.60;;;;;;;;;;4212060;28;20129;-59
2021/01/25 10:39:44;;;;;;;4.03;2.10;;;;;;;;;;4209161;28;20055;-58
2021/01/25 10:42:04;;;;;;;3.45;1.88;;;;;;;;;;4211931;28;20059;-58
2021/01/25 10:44:26;;;;;;;3.38;2.08;;;;;;;;;;4196534;28;20079;-57
2021/01/25 10:46:49;;;;;;;4.15;2.25;;;;;;;;;;4210967;28;20108;-60
2021/01/25 10:49:10;;;;;;;3.33;2.38;;;;;;;;;;4212231;28;20109;-58
2021/01/25 10:51:33;;;;;;;4.60;2.35;;;;;;;;;;4211210;28;20083;-57
2021/01/25 10:53:53;;;;;;;3.83;2.63;;;;;;;;;;4211977;28;20067;-58
2021/01/25 10:56:16;;;;;;;2.38;1.75;;;;;;;;;;4211919;28;20149;-58
2021/01/25 10:58:37;;;;;;;2.67;1.88;;;;;;;;;;4212256;28;20109;-58
2021/01/25 11:00:59;;;;;;;4.55;1.95;;;;;;;;;;4212107;28;20139;-61
2021/01/25 11:03:19;;;;;;;3.92;2.10;;;;;;;;;;4210406;28;20834;-62
2021/01/25 11:05:42;;;;;;;3.30;1.73;;;;;;;;;;4211126;28;20062;-59
2021/01/25 11:08:03;;;;;;;2.33;1.88;;;;;;;;;;4210952;28;20093;-59
2021/01/25 11:10:27;;;;;;;2.72;1.88;;;;;;;;;;4209275;28;20154;-58
2021/01/25 11:12:48;;;;;;;2.58;2.05;;;;;;;;;;4208895;28;20047;-58
2021/01/25 11:15:09;;;;;;;2.65;1.90;;;;;;;;;;4208510;28;20434;-59
2021/01/25 11:17:33;;;;;;;3.33;2.25;;;;;;;;;;4208281;28;20757;-57
2021/01/25 11:19:54;;;;;;;2.90;2.25;;;;;;;;;;4208638;28;20074;-57
2021/01/25 11:22:17;;;;;;;4.15;1.90;;;;;;;;;;4209889;28;20133;-57
2021/01/25 11:24:37;;;;;;;3.17;1.70;;;;;;;;;;4208732;28;20058;-58
2021/01/25 11:27:03;;;;;;;2.50;1.75;;;;;;;;;;4209188;28;20276;-58
2021/01/25 11:29:29;;;;;;;2.67;2.00;;;;;;;;;;4209209;28;20094;-58
2021/01/25 11:31:49;;;;;;;2.88;1.80;;;;;;;;;;4207899;28;20089;-59
2021/01/25 11:34:10;;;;;;;1.83;1.40;;;;;;;;;;4206823;28;20157;-59
2021/01/25 11:36:31;;;;;;;3.35;1.70;;;;;;;;;;4206880;28;20600;-59
2021/01/25 11:38:52;;;;;;;2.92;1.90;;;;;;;;;;4208162;28;20461;-60
2021/01/25 11:41:13;;;;;;;4.32;1.83;;;;;;;;;;4207217;28;20394;-60
2021/01/25 11:43:33;;;;;;;3.42;1.48;;;;;;;;;;4208966;28;20113;-60
2021/01/25 11:45:54;;;;;;;2.65;1.88;;;;;;;;;;4204918;28;20170;-59
2021/01/25 11:48:18;;;;;;;3.83;2.10;;;;;;;;;;4209311;28;20559;-60
2021/01/25 11:50:41;;;;;;;2.60;1.73;;;;;;;;;;4208405;28;20659;-59
2021/01/25 11:53:04;;;;;;;3.88;1.60;;;;;;;;;;4208070;28;20105;-62
2021/01/25 11:55:24;;;;;;;3.73;2.13;;;;;;;;;;4206505;28;20105;-60
2021/01/25 11:57:46;;;;;;;16.57;6.43;;;;;;;;;;4208973;28;20269;-61
2021/01/25 12:00:13;;;;;;;12.30;5.82;;;;;;;;;;4208226;28;20388;-58
2021/01/25 12:02:39;;;;;;;17.08;5.63;;;;;;;;;;4206976;28;20055;-60
2021/01/25 12:05:05;;;;;;;14.30;6.68;;;;;;;;;;4206048;28;20071;-59
2021/01/25 12:07:29;;;;;;;13.73;5.88;;;;;;;;;;4203660;28;20090;-60
2021/01/25 12:09:52;;;;;;;15.07;6.18;;;;;;;;;;4206612;28;20105;-59
2021/01/25 12:12:15;;;;;;;18.35;6.43;;;;;;;;;;4209443;28;20059;-59
2021/01/25 12:14:36;;;;;;;22.45;7.95;;;;;;;;;;4208127;28;20090;-58
2021/01/25 12:16:56;;;;;;;18.73;7.25;;;;;;;;;;4210494;28;20070;-59
2021/01/25 12:19:17;;;;;;;19.17;8.40;;;;;;;;;;4210163;28;20063;-59
2021/01/25 12:21:38;;;;;;;19.27;7.80;;;;;;;;;;4210178;28;20124;-59
2021/01/25 12:24:02;;;;;;;21.30;8.45;;;;;;;;;;4211240;28;20059;-59
2021/01/25 12:26:23;;;;;;;20.73;8.07;;;;;;;;;;4209669;28;20418;-59
2021/01/25 12:28:44;;;;;;;21.40;8.38;;;;;;;;;;4211024;28;20059;-59
2021/01/25 12:31:07;;;;;;;16.13;7.82;;;;;;;;;;4211356;28;20135;-58
2021/01/25 12:33:28;;;;;;;20.88;8.05;;;;;;;;;;4211060;28;20054;-59
2021/01/25 12:35:48;;;;;;;25.50;9.50;;;;;;;;;;4210678;28;20139;-59
2021/01/25 12:38:08;;;;;;;29.80;11.00;;;;;;;;;;4209664;28;20062;-59
2021/01/25 12:40:31;;;;;;;22.17;10.75;;;;;;;;;;4209951;28;20109;-58
2021/01/25 12:42:54;;;;;;;26.45;12.13;;;;;;;;;;4209609;28;20109;-59
2021/01/25 12:45:15;;;;;;;35.17;15.27;;;;;;;;;;4209630;28;20701;-59
2021/01/25 12:47:38;;;;;;;35.35;15.82;;;;;;;;;;4206685;28;20445;-57
2021/01/25 12:50:02;;;;;;;39.55;17.27;;;;;;;;;;4208390;28;20071;-58
2021/01/25 12:52:25;;;;;;;38.13;17.15;;;;;;;;;;4211215;28;20674;-58
2021/01/25 12:54:48;;;;;;;40.80;18.60;;;;;;;;;;4211072;28;20102;-58
2021/01/25 12:57:12;;;;;;;44.67;18.52;;;;;;;;;;4210866;28;20552;-59
2021/01/25 12:59:32;;;;;;;;;;;;;;;;;;4212934;28;20556;-59
2021/01/25 13:01:52;;;;;;;43.50;18.35;;;;;;;;;;4212352;28;19927;-58
2021/01/25 13:04:15;;;;;;;46.70;19.38;;;;;;;;;;4212494;28;20058;-59
2021/01/25 13:06:37;;;;;;;50.42;20.35;;;;;;;;;;4210834;28;20059;-59
2021/01/25 13:08:58;;;;;;;44.58;18.50;;;;;;;;;;4212203;28;20133;-59
2021/01/25 13:11:19;;;;;;;44.25;18.63;;;;;;;;;;4210190;28;20063;-60
2021/01/25 13:13:44;;;;;;;44.83;18.38;;;;;;;;;;4208892;28;20830;-58
2021/01/25 13:16:05;;;;;;;41.45;19.17;;;;;;;;;;4209817;28;20138;-58
2021/01/25 13:18:25;;;;;;;43.60;18.50;;;;;;;;;;4211000;28;20059;-59
2021/01/25 13:20:48;;;;;;;42.75;18.42;;;;;;;;;;4212256;28;20112;-58
2021/01/25 13:23:09;;;;;;;39.95;18.10;;;;;;;;;;4210351;28;20162;-58
2021/01/25 13:25:36;;;;;;;37.42;16.95;;;;;;;;;;4210436;28;20058;-58
2021/01/25 13:27:58;;;;;;;37.67;16.25;;;;;;;;;;4208969;28;20062;-59
2021/01/25 13:30:23;;;;;;;38.00;16.40;;;;;;;;;;4211040;28;20047;-58
2021/01/25 13:32:48;;;;;;;39.35;16.65;;;;;;;;;;4210646;28;20063;-58
2021/01/25 13:35:22;;;;;;;37.28;16.35;;;;;;;;;;4211639;28;20136;-58
2021/01/25 13:37:42;;;;;;;35.35;15.88;;;;;;;;;;4210687;28;20074;-60
2021/01/25 13:40:04;;;;;;;36.63;15.77;;;;;;;;;;4215226;28;20073;-60
2021/01/25 13:42:24;;;;;;;34.80;15.60;;;;;;;;;;4210628;28;20086;-59
2021/01/25 13:44:44;;;;;;;36.92;15.95;;;;;;;;;;4211627;28;20190;-60
2021/01/25 13:47:08;;;;;;;33.67;14.50;;;;;;;;;;4209148;28;20111;-60
2021/01/25 13:49:28;;;;;;;;;;;;;;;;;;4210592;28;20102;-60
2021/01/25 13:51:49;;;;;;;38.08;15.98;;;;;;;;;;4206922;28;20015;-60
2021/01/25 13:54:09;;;;;;;31.93;13.97;;;;;;;;;;4209202;28;20090;-61
2021/01/25 13:56:30;;;;;;;35.00;14.23;;;;;;;;;;4208856;28;20093;-61
2021/01/25 13:58:50;;;;;;;29.63;13.67;;;;;;;;;;4210304;28;20174;-62
2021/01/25 14:01:13;;;;;;;28.23;13.35;;;;;;;;;;4210101;28;20679;-60
2021/01/25 14:03:37;;;;;;;30.77;12.75;;;;;;;;;;4211285;28;20109;-61
2021/01/25 14:06:00;;;;;;;30.90;13.57;;;;;;;;;;4211573;28;20099;-60
2021/01/25 14:08:21;;;;;;;27.75;11.55;;;;;;;;;;4211904;28;20051;-60
2021/01/25 14:10:45;;;;;;;23.35;10.68;;;;;;;;;;4211637;28;20063;-60
2021/01/25 14:13:06;;;;;;;20.95;10.13;;;;;;;;;;4208213;28;20059;-62
2021/01/25 14:15:26;;;;;;;23.15;9.98;;;;;;;;;;4216576;28;20117;-63
2021/01/25 14:17:47;;;;;;;18.33;8.33;;;;;;;;;;4217176;28;20070;-66
2021/01/25 14:20:14;;;;;;;17.88;8.23;;;;;;;;;;4211760;28;20522;-63
2021/01/25 14:22:35;;;;;;;19.88;8.48;;;;;;;;;;4211894;28;20063;-62
2021/01/25 14:24:56;;;;;;;;;;;;;;;;;;4211958;28;20066;-60
2021/01/25 14:27:16;;;;;;;16.70;7.15;;;;;;;;;;4211835;28;19993;-65
2021/01/25 14:29:40;;;;;;;18.63;7.38;;;;;;;;;;4211734;28;20094;-62
2021/01/25 14:32:03;;;;;;;20.40;8.60;;;;;;;;;;4211697;28;20770;-62
2021/01/25 14:34:26;;;;;;;17.20;8.63;;;;;;;;;;4211830;28;20070;-62
2021/01/25 14:36:50;;;;;;;14.98;8.43;;;;;;;;;;4210612;28;20158;-62
2021/01/25 14:39:13;;;;;;;15.50;7.65;;;;;;;;;;4210638;28;20127;-62
2021/01/25 14:41:37;;;;;;;18.83;8.25;;;;;;;;;;4211464;28;20070;-62
2021/01/25 14:43:58;;;;;;;16.80;7.10;;;;;;;;;;4211671;28;20064;-62
2021/01/25 14:46:19;;;;;;;18.80;7.65;;;;;;;;;;4211383;28;20066;-62
2021/01/25 14:48:40;;;;;;;;;;;;;;;;;;4212132;28;20525;-63
2021/01/25 14:51:01;;;;;;;14.57;7.13;;;;;;;;;;4211229;28;19966;-62
2021/01/25 14:53:22;;;;;;;16.63;8.07;;;;;;;;;;4211102;28;20067;-62
2021/01/25 14:55:45;;;;;;;12.40;6.25;;;;;;;;;;4211610;28;20131;-62
2021/01/25 14:58:11;;;;;;;15.02;6.78;;;;;;;;;;4211510;28;20059;-62
2021/01/25 15:00:31;;;;;;;15.32;6.90;;;;;;;;;;4210558;28;20055;-62
2021/01/25 15:02:55;;;;;;;13.23;6.07;;;;;;;;;;4210915;28;20067;-62
2021/01/25 15:05:18;;;;;;;16.85;6.55;;;;;;;;;;4209869;28;20063;-62
2021/01/25 15:07:40;;;;;;;13.88;7.35;;;;;;;;;;4207540;28;20055;-62
2021/01/25 15:10:01;;;;;;;11.93;6.70;;;;;;;;;;4194638;28;20131;-61
2021/01/25 15:12:22;;;;;;;12.73;6.70;;;;;;;;;;4194399;28;20059;-62
2021/01/25 15:14:45;;;;;;;12.98;6.25;;;;;;;;;;4193957;28;20071;-63
2021/01/25 15:17:07;;;;;;;13.43;6.18;;;;;;;;;;4194251;28;20063;-64
2021/01/25 15:19:30;;;;;;;13.23;6.25;;;;;;;;;;4194395;28;20132;-64
2021/01/25 15:21:53;;;;;;;14.57;6.75;;;;;;;;;;4192943;28;20067;-64
2021/01/25 15:24:15;;;;;;;11.63;5.07;;;;;;;;;;4193948;28;20530;-62
2021/01/25 15:26:37;;;;;;;12.55;5.57;;;;;;;;;;4194099;28;20131;-63
2021/01/25 15:29:00;;;;;;;11.32;5.57;;;;;;;;;;4193871;28;20125;-62
2021/01/25 15:31:23;;;;;;;9.57;5.25;;;;;;;;;;4194299;28;20584;-62
2021/01/25 15:33:43;;;;;;;11.15;5.75;;;;;;;;;;4192941;28;20136;-61
2021/01/25 15:36:05;;;;;;;11.68;5.38;;;;;;;;;;4194211;28;20056;-61
2021/01/25 15:38:28;;;;;;;14.15;5.90;;;;;;;;;;4207824;28;20055;-61
2021/01/25 15:40:51;;;;;;;10.73;4.88;;;;;;;;;;4216553;28;20090;-66
2021/01/25 15:43:12;;;;;;;12.18;5.60;;;;;;;;;;4214131;28;20128;-64
2021/01/25 15:45:32;;;;;;;10.20;5.13;;;;;;;;;;4214443;28;20051;-65
2021/01/25 15:47:52;;;;;;;11.37;5.80;;;;;;;;;;4215839;28;20050;-67
2021/01/25 15:50:17;;;;;;;11.73;5.47;;;;;;;;;;4215815;28;20058;-66
2021/01/25 15:52:41;;;;;;;10.20;5.05;;;;;;;;;;4216659;28;20139;-65
2021/01/25 15:55:02;;;;;;;9.63;4.75;;;;;;;;;;4216683;28;20054;-63
2021/01/25 15:57:23;;;;;;;10.95;5.32;;;;;;;;;;4212706;28;20071;-61
2021/01/25 15:59:44;;;;;;;11.82;4.82;;;;;;;;;;4217741;28;20712;-62
2021/01/25 16:02:05;;;;;;;9.88;5.15;;;;;;;;;;4208873;28;20509;-61
2021/01/25 16:04:27;;;;;;;9.82;5.13;;;;;;;;;;4209675;28;20105;-62
2021/01/25 16:06:48;;;;;;;9.50;4.43;;;;;;;;;;4207342;28;20847;-61
2021/01/25 16:09:08;;;;;;;10.05;5.00;;;;;;;;;;4205439;28;20289;-59
2021/01/25 16:11:31;;;;;;;8.82;4.82;;;;;;;;;;4207224;28;20082;-60
2021/01/25 16:13:52;;;;;;;9.17;5.17;;;;;;;;;;4207403;28;20553;-62
2021/01/25 16:16:17;;;;;;;10.93;5.00;;;;;;;;;;4206359;28;20665;-66
2021/01/25 16:18:37;;;;;;;9.73;5.15;;;;;;;;;;4208494;28;20050;-65
2021/01/25 16:21:02;;;;;;;9.02;4.45;;;;;;;;;;4208110;28;20113;-63
2021/01/25 16:23:25;;;;;;;8.82;4.55;;;;;;;;;;4209622;28;20152;-64
2021/01/25 16:25:49;;;;;;;8.55;4.45;;;;;;;;;;4206461;28;20561;-65
2021/01/25 16:28:10;;;;;;;7.95;4.20;;;;;;;;;;4211771;28;20570;-66
2021/01/25 16:30:31;;;;;;;12.52;4.97;;;;;;;;;;4212661;28;20059;-63
2021/01/25 16:32:52;;;;;;;9.05;4.70;;;;;;;;;;4218917;28;20054;-65
2021/01/25 16:35:15;;;;;;;9.35;5.00;;;;;;;;;;4212647;28;20679;-65
2021/01/25 16:37:36;;;;;;;9.65;5.05;;;;;;;;;;4216295;28;20066;-68
2021/01/25 16:39:57;;;;;;;10.45;4.47;;;;;;;;;;4217711;28;20058;-65
2021/01/25 16:42:17;;;;;;;13.93;4.57;;;;;;;;;;4219303;28;20117;-65
2021/01/25 16:44:41;;;;;;;8.70;4.03;;;;;;;;;;4215118;28;20871;-65
2021/01/25 16:47:02;;;;;;;6.93;4.38;;;;;;;;;;4221295;28;20049;-62
2021/01/25 16:49:23;;;;;;;9.07;4.68;;;;;;;;;;4220156;28;20112;-62
2021/01/25 16:51:44;;;;;;;6.90;3.35;;;;;;;;;;4215181;28;20059;-62
2021/01/25 16:54:05;;;;;;;7.93;4.10;;;;;;;;;;4211536;28;20086;-62
2021/01/25 16:56:25;;;;;;;8.35;4.43;;;;;;;;;;4211559;28;20059;-62
2021/01/25 16:58:47;;;;;;;6.80;3.80;;;;;;;;;;4211628;28;20054;-62
2021/01/25 17:01:07;;;;;;;7.85;4.40;;;;;;;;;;4210327;28;20054;-62
2021/01/25 17:03:28;;;;;;;7.15;4.43;;;;;;;;;;4212562;28;20127;-62
2021/01/25 17:05:52;;;;;;;8.13;3.63;;;;;;;;;;4211114;28;20063;-60
2021/01/25 17:08:13;;;;;;;5.75;3.15;;;;;;;;;;4211153;28;20051;-62
2021/01/25 17:10:37;;;;;;;7.88;3.80;;;;;;;;;;4208861;28;20122;-62
2021/01/25 17:12:58;;;;;;;9.77;4.00;;;;;;;;;;4213017;28;20257;-64
2021/01/25 17:15:19;;;;;;;10.40;4.60;;;;;;;;;;4213047;28;20167;-65
2021/01/25 17:17:39;;;;;;;;;;;;;;;;;;4212962;28;20142;-64
2021/01/25 17:20:00;;;;;;;10.97;3.77;;;;;;;;;;4196259;28;20070;-63
2021/01/25 17:22:25;;;;;;;9.57;4.65;;;;;;;;;;4196182;28;20060;-65
2021/01/25 17:24:48;;;;;;;9.63;3.90;;;;;;;;;;4196383;28;20067;-63
2021/01/25 17:27:08;;;;;;;7.82;4.10;;;;;;;;;;4195313;28;20075;-64
2021/01/25 17:29:28;;;;;;;12.23;4.03;;;;;;;;;;4195313;28;20147;-66
2021/01/25 17:31:51;;;;;;;9.52;4.18;;;;;;;;;;4196188;28;20317;-64
2021/01/25 17:34:13;;;;;;;12.05;4.47;;;;;;;;;;4198807;28;20556;-64
2021/01/25 17:36:34;;;;;;;11.05;4.75;;;;;;;;;;4209308;28;20046;-65
2021/01/25 17:38:58;;;;;;;10.90;4.25;;;;;;;;;;4210074;28;20427;-65
2021/01/25 17:41:21;;;;;;;8.52;3.92;;;;;;;;;;4210485;28;20129;-65
2021/01/25 17:43:42;;;;;;;12.52;3.72;;;;;;;;;;4209536;28;20490;-64
2021/01/25 17:46:02;;;;;;;7.95;4.47;;;;;;;;;;4210483;28;20055;-64
2021/01/25 17:48:25;;;;;;;9.75;3.45;;;;;;;;;;4210556;28;20054;-68
2021/01/25 17:50:46;;;;;;;9.73;4.60;;;;;;;;;;4211145;28;20062;-63
2021/01/25 17:53:09;;;;;;;7.53;3.70;;;;;;;;;;4208116;28;20078;-64
2021/01/25 17:55:31;;;;;;;8.82;3.72;;;;;;;;;;4209520;28;20136;-63
2021/01/25 17:57:52;;;;;;;;;;;;;;;;;;4212257;28;20101;-63
2021/01/25 18:00:13;;;;;;;;;;;;;;;;;;4212080;28;20294;-63
2021/01/25 18:02:34;;;;;;;8.85;4.05;;;;;;;;;;4239520;27;20036;-64
2021/01/25 18:04:54;;;;;;;12.35;3.97;;;;;;;;;;4210869;28;20110;-64
2021/01/25 18:07:17;;;;;;;10.65;4.28;;;;;;;;;;4211300;28;20070;-63
2021/01/25 18:09:39;;;;;;;8.48;3.60;;;;;;;;;;4210146;28;20082;-64
2021/01/25 18:12:04;;;;;;;11.80;4.50;;;;;;;;;;4211793;28;20476;-64
2021/01/25 18:14:27;;;;;;;7.45;3.78;;;;;;;;;;4211096;28;20067;-63
2021/01/25 18:16:49;;;;;;;5.97;3.10;;;;;;;;;;4210339;28;20131;-63
2021/01/25 18:19:10;;;;;;;8.85;3.78;;;;;;;;;;4211173;28;20117;-63
2021/01/25 18:21:33;;;;;;;6.65;3.47;;;;;;;;;;4211197;28;20131;-63
2021/01/25 18:23:54;;;;;;;7.70;3.70;;;;;;;;;;4210264;28;20063;-63
2021/01/25 18:26:19;;;;;;;8.60;3.53;;;;;;;;;;4211411;28;20131;-63
2021/01/25 18:28:40;;;;;;;8.68;3.63;;;;;;;;;;4209880;28;20055;-63
2021/01/25 18:31:01;;;;;;;8.88;4.68;;;;;;;;;;4209996;28;20066;-64
2021/01/25 18:33:24;;;;;;;8.02;3.53;;;;;;;;;;4210990;28;20105;-64
2021/01/25 18:35:44;;;;;;;7.07;3.25;;;;;;;;;;4214506;28;20104;-66
2021/01/25 18:38:06;;;;;;;6.85;3.55;;;;;;;;;;4217785;28;20563;-66
2021/01/25 18:40:29;;;;;;;6.03;3.22;;;;;;;;;;4218170;28;20062;-66
2021/01/25 18:42:51;;;;;;;6.97;3.47;;;;;;;;;;4218327;28;20065;-64
2021/01/25 18:45:16;;;;;;;8.85;3.40;;;;;;;;;;4218828;28;20105;-63
2021/01/25 18:47:39;;;;;;;8.10;3.35;;;;;;;;;;4216804;28;20113;-63
2021/01/25 18:50:03;;;;;;;6.05;3.45;;;;;;;;;;4216581;28;20734;-61
2021/01/25 18:52:24;;;;;;;6.45;2.70;;;;;;;;;;4217565;28;20059;-62
2021/01/25 18:54:45;;;;;;;7.50;3.92;;;;;;;;;;4217490;28;20071;-63
2021/01/25 18:57:08;;;;;;;8.93;3.55;;;;;;;;;;4212287;28;20051;-62
2021/01/25 18:59:28;;;;;;;8.80;3.80;;;;;;;;;;4218794;28;20062;-64
2021/01/25 19:01:50;;;;;;;6.93;3.85;;;;;;;;;;4218940;28;20058;-62
2021/01/25 19:04:10;;;;;;;6.78;3.22;;;;;;;;;;4215003;28;20147;-62
2021/01/25 19:06:35;;;;;;;7.15;3.60;;;;;;;;;;4216535;28;20073;-63
2021/01/25 19:08:58;;;;;;;7.20;2.80;;;;;;;;;;4217063;28;20947;-63
2021/01/25 19:11:19;;;;;;;7.03;3.58;;;;;;;;;;4217313;28;20047;-62
2021/01/25 19:13:39;;;;;;;6.20;3.53;;;;;;;;;;4217244;28;20046;-62
2021/01/25 19:16:03;;;;;;;6.10;3.00;;;;;;;;;;4217652;28;20152;-71
2021/01/25 19:18:27;;;;;;;7.28;3.75;;;;;;;;;;4216965;28;20067;-66
2021/01/25 19:20:50;;;;;;;8.02;3.50;;;;;;;;;;4215126;28;20154;-66
2021/01/25 19:23:14;;;;;;;7.13;3.92;;;;;;;;;;4215675;28;20125;-67
2021/01/25 19:25:37;;;;;;;18.63;14.57;;;;;;;;;;4210433;28;20067;-63
2021/01/25 19:27:57;;;;;;;14.85;12.75;;;;;;;;;;4218707;28;20050;-63
2021/01/25 19:30:21;;;;;;;13.82;12.18;;;;;;;;;;4210537;28;20054;-62
2021/01/25 19:32:41;;;;;;;15.73;11.50;;;;;;;;;;4211044;28;20095;-62
2021/01/25 19:35:07;;;;;;;15.93;11.82;;;;;;;;;;4209884;28;20063;-62
2021/01/25 19:37:28;;;;;;;13.13;11.57;;;;;;;;;;4210217;28;20742;-62
2021/01/25 19:39:51;;;;;;;12.73;11.43;;;;;;;;;;4211204;28;20522;-62
2021/01/25 19:42:12;;;;;;;15.32;12.63;;;;;;;;;;4210180;28;20075;-62
